sensor_id;sensor_type;location;lat;lon;timestamp;P1;durP1;ratioP1;P2;durP2;ratioP2
15194;SDS011;7698;42.478;23.756;2022-09-04T00:00:36;11.18;;;10.18;;
15194;SDS011;7698;42.478;23.756;2022-09-04T00:03:15;12.23;;;11.23;;
15194;SDS011;7698;42.478;23.756;2022-09-04T00:05:43;12.18;;;10.95;;
15194;SDS011;7698;42.478;23.756;2022-09-04T00:08:14;11.95;;;10.85;;
15194;SDS011;7698;42.478;23.756;2022-09-04T00:10:47;10.10;;;9.23;;
15194;SDS011;7698;42.478;23.756;2022-09-04T00:13:17;11.05;;;9.95;;
15194;SDS011;7698;42.478;23.756;2022-09-04T00:15:47;11.70;;;10.68;;
15194;SDS011;7698;42.478;23.756;2022-09-04T00:18:17;10.73;;;9.90;;
15194;SDS011;7698;42.478;23.756;2022-09-04T00:20:46;10.43;;;9.63;;
15194;SDS011;7698;42.478;23.756;2022-09-04T00:23:16;12.70;;;9.85;;
15194;SDS011;7698;42.478;23.756;2022-09-04T00:25:47;11.63;;;10.52;;
15194;SDS011;7698;42.478;23.756;2022-09-04T00:28:17;11.43;;;10.27;;
15194;SDS011;7698;42.478;23.756;2022-09-04T00:30:45;11.00;;;10.07;;
15194;SDS011;7698;42.478;23.756;2022-09-04T00:33:16;11.23;;;10.20;;
15194;SDS011;7698;42.478;23.756;2022-09-04T00:35:45;11.27;;;10.27;;
15194;SDS011;7698;42.478;23.756;2022-09-04T00:38:14;11.43;;;10.32;;
15194;SDS011;7698;42.478;23.756;2022-09-04T00:40:43;11.30;;;10.40;;
15194;SDS011;7698;42.478;23.756;2022-09-04T00:43:17;10.13;;;9.32;;
15194;SDS011;7698;42.478;23.756;2022-09-04T00:45:56;10.60;;;9.70;;
15194;SDS011;7698;42.478;23.756;2022-09-04T00:48:37;10.82;;;9.90;;
15194;SDS011;7698;42.478;23.756;2022-09-04T00:54:00;11.38;;;10.38;;
15194;SDS011;7698;42.478;23.756;2022-09-04T00:59:17;10.77;;;9.88;;
15194;SDS011;7698;42.478;23.756;2022-09-04T01:01:47;11.27;;;10.18;;
15194;SDS011;7698;42.478;23.756;2022-09-04T01:04:25;11.70;;;10.70;;
15194;SDS011;7698;42.478;23.756;2022-09-04T01:07:00;14.02;;;12.85;;
15194;SDS011;7698;42.478;23.756;2022-09-04T01:09:33;12.30;;;11.35;;
15194;SDS011;7698;42.478;23.756;2022-09-04T01:12:07;12.77;;;11.68;;
15194;SDS011;7698;42.478;23.756;2022-09-04T01:14:39;11.93;;;10.88;;
15194;SDS011;7698;42.478;23.756;2022-09-04T01:17:10;11.88;;;10.88;;
15194;SDS011;7698;42.478;23.756;2022-09-04T01:19:41;13.80;;;12.52;;
15194;SDS011;7698;42.478;23.756;2022-09-04T01:22:15;13.57;;;12.48;;
15194;SDS011;7698;42.478;23.756;2022-09-04T01:24:58;14.65;;;13.30;;
15194;SDS011;7698;42.478;23.756;2022-09-04T01:27:30;12.88;;;11.85;;
15194;SDS011;7698;42.478;23.756;2022-09-04T01:30:00;13.70;;;12.60;;
15194;SDS011;7698;42.478;23.756;2022-09-04T01:32:30;14.50;;;13.32;;
15194;SDS011;7698;42.478;23.756;2022-09-04T01:35:01;12.70;;;11.70;;
15194;SDS011;7698;42.478;23.756;2022-09-04T01:37:38;12.95;;;11.82;;
15194;SDS011;7698;42.478;23.756;2022-09-04T01:40:18;12.38;;;11.30;;
15194;SDS011;7698;42.478;23.756;2022-09-04T01:42:49;12.65;;;11.55;;
15194;SDS011;7698;42.478;23.756;2022-09-04T01:45:23;12.52;;;11.50;;
15194;SDS011;7698;42.478;23.756;2022-09-04T01:47:50;11.55;;;10.55;;
15194;SDS011;7698;42.478;23.756;2022-09-04T01:50:19;14.23;;;12.60;;
15194;SDS011;7698;42.478;23.756;2022-09-04T01:52:48;13.48;;;12.27;;
15194;SDS011;7698;42.478;23.756;2022-09-04T01:55:19;13.38;;;12.05;;
15194;SDS011;7698;42.478;23.756;2022-09-04T01:57:56;12.70;;;11.70;;
15194;SDS011;7698;42.478;23.756;2022-09-04T02:00:24;12.27;;;11.27;;
15194;SDS011;7698;42.478;23.756;2022-09-04T02:02:54;12.38;;;10.98;;
15194;SDS011;7698;42.478;23.756;2022-09-04T02:05:25;10.18;;;9.38;;
15194;SDS011;7698;42.478;23.756;2022-09-04T02:07:56;11.38;;;10.23;;
15194;SDS011;7698;42.478;23.756;2022-09-04T02:10:33;10.20;;;9.30;;
15194;SDS011;7698;42.478;23.756;2022-09-04T02:13:06;11.23;;;10.23;;
15194;SDS011;7698;42.478;23.756;2022-09-04T02:15:36;10.38;;;9.50;;
15194;SDS011;7698;42.478;23.756;2022-09-04T02:18:08;10.63;;;9.73;;
15194;SDS011;7698;42.478;23.756;2022-09-04T02:20:41;9.95;;;9.15;;
15194;SDS011;7698;42.478;23.756;2022-09-04T02:23:13;11.27;;;10.38;;
15194;SDS011;7698;42.478;23.756;2022-09-04T02:25:43;11.30;;;10.30;;
15194;SDS011;7698;42.478;23.756;2022-09-04T02:28:18;10.32;;;9.43;;
15194;SDS011;7698;42.478;23.756;2022-09-04T02:30:47;9.93;;;9.02;;
15194;SDS011;7698;42.478;23.756;2022-09-04T02:33:18;9.30;;;8.50;;
15194;SDS011;7698;42.478;23.756;2022-09-04T02:35:46;10.77;;;9.88;;
15194;SDS011;7698;42.478;23.756;2022-09-04T02:38:17;11.48;;;10.48;;
15194;SDS011;7698;42.478;23.756;2022-09-04T02:40:49;9.73;;;8.90;;
15194;SDS011;7698;42.478;23.756;2022-09-04T02:43:23;9.95;;;9.05;;
15194;SDS011;7698;42.478;23.756;2022-09-04T02:45:54;9.07;;;8.27;;
15194;SDS011;7698;42.478;23.756;2022-09-04T02:48:27;9.75;;;8.95;;
15194;SDS011;7698;42.478;23.756;2022-09-04T02:51:02;9.57;;;8.77;;
15194;SDS011;7698;42.478;23.756;2022-09-04T02:53:33;9.45;;;8.57;;
15194;SDS011;7698;42.478;23.756;2022-09-04T02:56:08;8.88;;;8.10;;
15194;SDS011;7698;42.478;23.756;2022-09-04T02:58:45;9.32;;;8.50;;
15194;SDS011;7698;42.478;23.756;2022-09-04T03:01:15;9.50;;;8.70;;
15194;SDS011;7698;42.478;23.756;2022-09-04T03:03:47;9.25;;;8.45;;
15194;SDS011;7698;42.478;23.756;2022-09-04T03:06:17;10.73;;;9.63;;
15194;SDS011;7698;42.478;23.756;2022-09-04T03:08:48;11.35;;;10.25;;
15194;SDS011;7698;42.478;23.756;2022-09-04T03:11:17;9.57;;;8.77;;
15194;SDS011;7698;42.478;23.756;2022-09-04T03:13:49;9.40;;;8.50;;
15194;SDS011;7698;42.478;23.756;2022-09-04T03:16:19;9.45;;;8.55;;
15194;SDS011;7698;42.478;23.756;2022-09-04T03:18:57;10.00;;;9.07;;
15194;SDS011;7698;42.478;23.756;2022-09-04T03:21:28;9.10;;;8.30;;
15194;SDS011;7698;42.478;23.756;2022-09-04T03:23:58;69.25;;;12.63;;
15194;SDS011;7698;42.478;23.756;2022-09-04T03:26:26;71.45;;;12.07;;
15194;SDS011;7698;42.478;23.756;2022-09-04T03:28:58;128.73;;;17.65;;
15194;SDS011;7698;42.478;23.756;2022-09-04T03:31:28;56.47;;;13.57;;
15194;SDS011;7698;42.478;23.756;2022-09-04T03:33:59;112.47;;;19.02;;
15194;SDS011;7698;42.478;23.756;2022-09-04T03:36:31;101.93;;;16.77;;
15194;SDS011;7698;42.478;23.756;2022-09-04T03:39:01;62.83;;;15.85;;
15194;SDS011;7698;42.478;23.756;2022-09-04T03:41:33;107.80;;;20.58;;
15194;SDS011;7698;42.478;23.756;2022-09-04T03:44:07;39.47;;;15.65;;
15194;SDS011;7698;42.478;23.756;2022-09-04T03:46:43;16.10;;;14.68;;
15194;SDS011;7698;42.478;23.756;2022-09-04T03:49:14;16.38;;;14.95;;
15194;SDS011;7698;42.478;23.756;2022-09-04T03:51:44;17.02;;;15.40;;
15194;SDS011;7698;42.478;23.756;2022-09-04T03:54:21;41.95;;;16.10;;
15194;SDS011;7698;42.478;23.756;2022-09-04T03:56:54;195.48;;;24.08;;
15194;SDS011;7698;42.478;23.756;2022-09-04T03:59:32;58.17;;;16.77;;
15194;SDS011;7698;42.478;23.756;2022-09-04T04:02:02;64.28;;;18.05;;
15194;SDS011;7698;42.478;23.756;2022-09-04T04:04:39;77.07;;;17.40;;
15194;SDS011;7698;42.478;23.756;2022-09-04T04:07:11;131.70;;;20.40;;
15194;SDS011;7698;42.478;23.756;2022-09-04T04:09:47;97.00;;;15.75;;
15194;SDS011;7698;42.478;23.756;2022-09-04T04:12:23;17.60;;;12.13;;
15194;SDS011;7698;42.478;23.756;2022-09-04T04:17:45;15.75;;;13.32;;
15194;SDS011;7698;42.478;23.756;2022-09-04T04:20:17;18.40;;;16.45;;
15194;SDS011;7698;42.478;23.756;2022-09-04T04:22:53;22.70;;;20.42;;
15194;SDS011;7698;42.478;23.756;2022-09-04T04:25:40;22.95;;;20.75;;
15194;SDS011;7698;42.478;23.756;2022-09-04T04:28:17;22.02;;;19.88;;
15194;SDS011;7698;42.478;23.756;2022-09-04T04:30:49;19.58;;;17.80;;
15194;SDS011;7698;42.478;23.756;2022-09-04T04:33:27;19.65;;;17.83;;
15194;SDS011;7698;42.478;23.756;2022-09-04T04:36:00;19.55;;;17.75;;
15194;SDS011;7698;42.478;23.756;2022-09-04T04:38:34;17.95;;;16.08;;
15194;SDS011;7698;42.478;23.756;2022-09-04T04:41:08;16.95;;;15.45;;
15194;SDS011;7698;42.478;23.756;2022-09-04T04:43:42;15.25;;;13.90;;
15194;SDS011;7698;42.478;23.756;2022-09-04T04:46:12;14.55;;;13.25;;
15194;SDS011;7698;42.478;23.756;2022-09-04T04:48:58;12.30;;;11.20;;
15194;SDS011;7698;42.478;23.756;2022-09-04T04:51:46;11.00;;;9.85;;
15194;SDS011;7698;42.478;23.756;2022-09-04T04:54:18;8.70;;;7.90;;
15194;SDS011;7698;42.478;23.756;2022-09-04T04:56:49;8.55;;;7.93;;
15194;SDS011;7698;42.478;23.756;2022-09-04T04:59:20;7.53;;;6.93;;
15194;SDS011;7698;42.478;23.756;2022-09-04T05:01:51;8.23;;;7.45;;
15194;SDS011;7698;42.478;23.756;2022-09-04T05:04:21;6.95;;;6.45;;
15194;SDS011;7698;42.478;23.756;2022-09-04T05:06:52;9.23;;;6.03;;
15194;SDS011;7698;42.478;23.756;2022-09-04T05:09:24;7.15;;;6.55;;
15194;SDS011;7698;42.478;23.756;2022-09-04T05:11:57;7.40;;;6.85;;
15194;SDS011;7698;42.478;23.756;2022-09-04T05:14:34;6.30;;;5.80;;
15194;SDS011;7698;42.478;23.756;2022-09-04T05:17:04;5.85;;;5.45;;
15194;SDS011;7698;42.478;23.756;2022-09-04T05:19:34;6.57;;;5.97;;
15194;SDS011;7698;42.478;23.756;2022-09-04T05:22:03;30.65;;;7.68;;
15194;SDS011;7698;42.478;23.756;2022-09-04T05:24:31;9.85;;;6.28;;
15194;SDS011;7698;42.478;23.756;2022-09-04T05:27:01;15.63;;;6.38;;
15194;SDS011;7698;42.478;23.756;2022-09-04T05:29:33;10.77;;;7.18;;
15194;SDS011;7698;42.478;23.756;2022-09-04T05:32:04;8.32;;;7.53;;
15194;SDS011;7698;42.478;23.756;2022-09-04T05:34:46;45.65;;;9.43;;
15194;SDS011;7698;42.478;23.756;2022-09-04T05:37:18;14.95;;;7.07;;
15194;SDS011;7698;42.478;23.756;2022-09-04T05:39:52;7.35;;;6.03;;
15194;SDS011;7698;42.478;23.756;2022-09-04T05:42:36;8.65;;;6.55;;
15194;SDS011;7698;42.478;23.756;2022-09-04T05:45:05;9.55;;;6.75;;
15194;SDS011;7698;42.478;23.756;2022-09-04T05:47:36;6.60;;;6.15;;
15194;SDS011;7698;42.478;23.756;2022-09-04T05:50:17;8.88;;;8.18;;
15194;SDS011;7698;42.478;23.756;2022-09-04T05:52:54;7.75;;;6.78;;
15194;SDS011;7698;42.478;23.756;2022-09-04T05:55:36;29.45;;;6.72;;
15194;SDS011;7698;42.478;23.756;2022-09-04T06:00:51;20.80;;;7.80;;
15194;SDS011;7698;42.478;23.756;2022-09-04T06:06:13;14.40;;;8.57;;
15194;SDS011;7698;42.478;23.756;2022-09-04T06:14:23;50.22;;;13.05;;
15194;SDS011;7698;42.478;23.756;2022-09-04T06:16:56;16.88;;;14.27;;
15194;SDS011;7698;42.478;23.756;2022-09-04T06:19:40;119.25;;;17.73;;
15194;SDS011;7698;42.478;23.756;2022-09-04T06:25:07;350.38;;;32.63;;
15194;SDS011;7698;42.478;23.756;2022-09-04T06:27:43;39.45;;;15.40;;
15194;SDS011;7698;42.478;23.756;2022-09-04T06:30:13;64.18;;;15.95;;
15194;SDS011;7698;42.478;23.756;2022-09-04T06:35:33;62.83;;;16.67;;
15194;SDS011;7698;42.478;23.756;2022-09-04T06:38:18;31.80;;;19.13;;
15194;SDS011;7698;42.478;23.756;2022-09-04T06:40:54;48.30;;;15.75;;
15194;SDS011;7698;42.478;23.756;2022-09-04T06:43:25;111.90;;;19.42;;
15194;SDS011;7698;42.478;23.756;2022-09-04T06:45:55;27.58;;;18.63;;
15194;SDS011;7698;42.478;23.756;2022-09-04T06:48:27;72.25;;;16.33;;
15194;SDS011;7698;42.478;23.756;2022-09-04T06:50:59;18.20;;;16.20;;
15194;SDS011;7698;42.478;23.756;2022-09-04T06:53:34;18.77;;;16.98;;
15194;SDS011;7698;42.478;23.756;2022-09-04T06:56:09;19.50;;;17.77;;
15194;SDS011;7698;42.478;23.756;2022-09-04T06:58:43;20.20;;;18.45;;
15194;SDS011;7698;42.478;23.756;2022-09-04T07:01:15;19.70;;;17.88;;
15194;SDS011;7698;42.478;23.756;2022-09-04T07:03:48;18.50;;;16.80;;
15194;SDS011;7698;42.478;23.756;2022-09-04T07:06:21;19.35;;;17.75;;
15194;SDS011;7698;42.478;23.756;2022-09-04T07:08:53;19.15;;;17.27;;
15194;SDS011;7698;42.478;23.756;2022-09-04T07:11:26;28.45;;;17.25;;
15194;SDS011;7698;42.478;23.756;2022-09-04T07:14:05;17.38;;;15.82;;
15194;SDS011;7698;42.478;23.756;2022-09-04T07:16:41;17.08;;;15.57;;
15194;SDS011;7698;42.478;23.756;2022-09-04T07:19:19;15.73;;;14.18;;
15194;SDS011;7698;42.478;23.756;2022-09-04T07:21:53;16.05;;;14.75;;
15194;SDS011;7698;42.478;23.756;2022-09-04T07:27:13;16.10;;;14.80;;
15194;SDS011;7698;42.478;23.756;2022-09-04T07:29:43;12.48;;;11.48;;
15194;SDS011;7698;42.478;23.756;2022-09-04T07:32:13;13.82;;;12.63;;
15194;SDS011;7698;42.478;23.756;2022-09-04T07:34:45;14.80;;;13.60;;
15194;SDS011;7698;42.478;23.756;2022-09-04T07:37:17;13.02;;;12.02;;
15194;SDS011;7698;42.478;23.756;2022-09-04T07:39:52;12.00;;;11.10;;
15194;SDS011;7698;42.478;23.756;2022-09-04T07:42:22;13.27;;;9.98;;
15194;SDS011;7698;42.478;23.756;2022-09-04T07:44:53;10.70;;;9.90;;
15194;SDS011;7698;42.478;23.756;2022-09-04T07:47:24;9.93;;;9.05;;
15194;SDS011;7698;42.478;23.756;2022-09-04T07:49:56;12.60;;;9.93;;
15194;SDS011;7698;42.478;23.756;2022-09-04T07:52:29;9.65;;;8.93;;
15194;SDS011;7698;42.478;23.756;2022-09-04T07:55:11;9.70;;;9.00;;
15194;SDS011;7698;42.478;23.756;2022-09-04T08:00:22;6.82;;;6.35;;
15194;SDS011;7698;42.478;23.756;2022-09-04T08:02:59;6.93;;;6.43;;
15194;SDS011;7698;42.478;23.756;2022-09-04T08:05:30;8.23;;;7.53;;
15194;SDS011;7698;42.478;23.756;2022-09-04T08:08:10;7.63;;;7.03;;
15194;SDS011;7698;42.478;23.756;2022-09-04T08:10:45;7.35;;;6.75;;
15194;SDS011;7698;42.478;23.756;2022-09-04T08:13:20;6.68;;;6.07;;
15194;SDS011;7698;42.478;23.756;2022-09-04T08:15:52;5.25;;;4.85;;
15194;SDS011;7698;42.478;23.756;2022-09-04T08:18:27;6.90;;;6.35;;
15194;SDS011;7698;42.478;23.756;2022-09-04T08:21:01;7.93;;;7.32;;
15194;SDS011;7698;42.478;23.756;2022-09-04T08:23:38;7.05;;;6.45;;
15194;SDS011;7698;42.478;23.756;2022-09-04T08:26:08;5.03;;;4.63;;
15194;SDS011;7698;42.478;23.756;2022-09-04T08:28:45;3.22;;;3.03;;
15194;SDS011;7698;42.478;23.756;2022-09-04T08:31:24;3.40;;;3.20;;
15194;SDS011;7698;42.478;23.756;2022-09-04T08:36:46;3.92;;;3.63;;
15194;SDS011;7698;42.478;23.756;2022-09-04T08:39:18;4.80;;;4.38;;
15194;SDS011;7698;42.478;23.756;2022-09-04T08:50:28;3.50;;;3.30;;
15194;SDS011;7698;42.478;23.756;2022-09-04T08:55:52;2.80;;;2.60;;
15194;SDS011;7698;42.478;23.756;2022-09-04T08:58:27;3.42;;;3.22;;
15194;SDS011;7698;42.478;23.756;2022-09-04T09:01:08;3.60;;;3.40;;
15194;SDS011;7698;42.478;23.756;2022-09-04T09:03:46;3.08;;;2.85;;
15194;SDS011;7698;42.478;23.756;2022-09-04T09:06:35;3.55;;;3.25;;
15194;SDS011;7698;42.478;23.756;2022-09-04T09:09:32;4.18;;;3.88;;
15194;SDS011;7698;42.478;23.756;2022-09-04T09:12:15;4.20;;;3.90;;
15194;SDS011;7698;42.478;23.756;2022-09-04T09:15:00;3.55;;;3.35;;
15194;SDS011;7698;42.478;23.756;2022-09-04T09:17:35;3.83;;;3.63;;
15194;SDS011;7698;42.478;23.756;2022-09-04T09:20:09;3.67;;;3.47;;
15194;SDS011;7698;42.478;23.756;2022-09-04T09:23:07;3.80;;;3.50;;
15194;SDS011;7698;42.478;23.756;2022-09-04T09:25:33;4.43;;;4.00;;
15194;SDS011;7698;42.478;23.756;2022-09-04T09:31:15;4.00;;;3.50;;
15194;SDS011;7698;42.478;23.756;2022-09-04T09:36:52;3.95;;;3.70;;
15194;SDS011;7698;42.478;23.756;2022-09-04T09:39:35;4.30;;;4.00;;
15194;SDS011;7698;42.478;23.756;2022-09-04T09:42:18;4.13;;;3.83;;
15194;SDS011;7698;42.478;23.756;2022-09-04T09:45:02;3.88;;;3.58;;
15194;SDS011;7698;42.478;23.756;2022-09-04T09:50:30;4.13;;;3.80;;
15194;SDS011;7698;42.478;23.756;2022-09-04T09:53:20;3.53;;;3.33;;
15194;SDS011;7698;42.478;23.756;2022-09-04T09:58:40;4.07;;;3.83;;
15194;SDS011;7698;42.478;23.756;2022-09-04T10:01:17;3.70;;;3.40;;
15194;SDS011;7698;42.478;23.756;2022-09-04T10:03:59;4.55;;;4.25;;
15194;SDS011;7698;42.478;23.756;2022-09-04T10:09:33;4.40;;;4.10;;
15194;SDS011;7698;42.478;23.756;2022-09-04T10:15:01;3.60;;;3.40;;
15194;SDS011;7698;42.478;23.756;2022-09-04T10:23:06;4.30;;;4.00;;
15194;SDS011;7698;42.478;23.756;2022-09-04T10:28:21;3.42;;;3.22;;
15194;SDS011;7698;42.478;23.756;2022-09-04T10:31:06;3.35;;;3.15;;
15194;SDS011;7698;42.478;23.756;2022-09-04T10:33:38;3.80;;;3.60;;
15194;SDS011;7698;42.478;23.756;2022-09-04T10:36:12;3.67;;;3.45;;
15194;SDS011;7698;42.478;23.756;2022-09-04T10:38:46;3.88;;;3.65;;
15194;SDS011;7698;42.478;23.756;2022-09-04T10:41:50;4.10;;;3.80;;
15194;SDS011;7698;42.478;23.756;2022-09-04T10:44:43;4.45;;;3.60;;
15194;SDS011;7698;42.478;23.756;2022-09-04T10:47:21;3.60;;;3.40;;
15194;SDS011;7698;42.478;23.756;2022-09-04T10:49:52;3.47;;;3.25;;
15194;SDS011;7698;42.478;23.756;2022-09-04T10:52:34;3.67;;;3.45;;
15194;SDS011;7698;42.478;23.756;2022-09-04T10:55:11;3.17;;;2.97;;
15194;SDS011;7698;42.478;23.756;2022-09-04T11:00:37;3.85;;;3.35;;
15194;SDS011;7698;42.478;23.756;2022-09-04T11:03:15;3.83;;;3.63;;
15194;SDS011;7698;42.478;23.756;2022-09-04T11:05:57;3.90;;;3.45;;
15194;SDS011;7698;42.478;23.756;2022-09-04T11:08:38;3.75;;;3.53;;
15194;SDS011;7698;42.478;23.756;2022-09-04T11:11:11;3.63;;;3.22;;
15194;SDS011;7698;42.478;23.756;2022-09-04T11:16:52;3.40;;;3.20;;
15194;SDS011;7698;42.478;23.756;2022-09-04T11:25:03;3.30;;;3.10;;
15194;SDS011;7698;42.478;23.756;2022-09-04T11:30:24;3.38;;;3.17;;
15194;SDS011;7698;42.478;23.756;2022-09-04T11:33:00;3.60;;;3.30;;
15194;SDS011;7698;42.478;23.756;2022-09-04T11:35:40;3.70;;;3.45;;
15194;SDS011;7698;42.478;23.756;2022-09-04T11:38:16;3.60;;;3.35;;
15194;SDS011;7698;42.478;23.756;2022-09-04T11:49:12;3.38;;;3.17;;
15194;SDS011;7698;42.478;23.756;2022-09-04T11:51:52;3.90;;;3.50;;
15194;SDS011;7698;42.478;23.756;2022-09-04T11:57:10;3.00;;;2.80;;
15194;SDS011;7698;42.478;23.756;2022-09-04T11:59:46;3.30;;;3.00;;
15194;SDS011;7698;42.478;23.756;2022-09-04T12:05:17;3.30;;;3.08;;
15194;SDS011;7698;42.478;23.756;2022-09-04T12:08:07;2.70;;;2.60;;
15194;SDS011;7698;42.478;23.756;2022-09-04T12:10:40;3.95;;;2.55;;
15194;SDS011;7698;42.478;23.756;2022-09-04T12:13:18;2.95;;;2.75;;
15194;SDS011;7698;42.478;23.756;2022-09-04T12:15:57;5.32;;;3.03;;
15194;SDS011;7698;42.478;23.756;2022-09-04T12:21:42;4.68;;;3.40;;
15194;SDS011;7698;42.478;23.756;2022-09-04T12:27:03;3.10;;;2.90;;
15194;SDS011;7698;42.478;23.756;2022-09-04T12:29:47;3.72;;;3.30;;
15194;SDS011;7698;42.478;23.756;2022-09-04T12:32:25;4.40;;;3.30;;
15194;SDS011;7698;42.478;23.756;2022-09-04T12:38:05;3.42;;;3.00;;
15194;SDS011;7698;42.478;23.756;2022-09-04T12:40:39;3.08;;;2.88;;
15194;SDS011;7698;42.478;23.756;2022-09-04T12:43:18;2.80;;;2.60;;
15194;SDS011;7698;42.478;23.756;2022-09-04T12:45:50;3.85;;;3.03;;
15194;SDS011;7698;42.478;23.756;2022-09-04T12:48:21;7.45;;;3.50;;
15194;SDS011;7698;42.478;23.756;2022-09-04T12:50:52;3.75;;;3.05;;
15194;SDS011;7698;42.478;23.756;2022-09-04T12:56:16;2.92;;;2.75;;
15194;SDS011;7698;42.478;23.756;2022-09-04T12:59:07;2.92;;;2.72;;
15194;SDS011;7698;42.478;23.756;2022-09-04T13:01:38;3.47;;;3.17;;
15194;SDS011;7698;42.478;23.756;2022-09-04T13:04:13;3.58;;;3.33;;
15194;SDS011;7698;42.478;23.756;2022-09-04T13:06:44;3.65;;;3.45;;
15194;SDS011;7698;42.478;23.756;2022-09-04T13:09:15;3.50;;;3.20;;
15194;SDS011;7698;42.478;23.756;2022-09-04T13:11:52;3.10;;;2.90;;
15194;SDS011;7698;42.478;23.756;2022-09-04T13:14:34;3.33;;;3.08;;
15194;SDS011;7698;42.478;23.756;2022-09-04T13:17:07;3.28;;;3.08;;
15194;SDS011;7698;42.478;23.756;2022-09-04T13:19:38;3.55;;;3.35;;
15194;SDS011;7698;42.478;23.756;2022-09-04T13:22:12;3.42;;;2.97;;
15194;SDS011;7698;42.478;23.756;2022-09-04T13:24:42;3.00;;;2.80;;
15194;SDS011;7698;42.478;23.756;2022-09-04T13:27:20;3.30;;;3.00;;
15194;SDS011;7698;42.478;23.756;2022-09-04T13:29:54;3.22;;;3.03;;
15194;SDS011;7698;42.478;23.756;2022-09-04T13:35:25;2.70;;;2.50;;
15194;SDS011;7698;42.478;23.756;2022-09-04T13:38:00;2.40;;;2.20;;
15194;SDS011;7698;42.478;23.756;2022-09-04T13:40:36;2.08;;;1.90;;
15194;SDS011;7698;42.478;23.756;2022-09-04T13:43:14;1.75;;;1.65;;
15194;SDS011;7698;42.478;23.756;2022-09-04T13:45:44;2.13;;;1.92;;
15194;SDS011;7698;42.478;23.756;2022-09-04T13:48:12;2.20;;;2.00;;
15194;SDS011;7698;42.478;23.756;2022-09-04T13:50:41;2.30;;;2.10;;
15194;SDS011;7698;42.478;23.756;2022-09-04T13:53:09;2.78;;;2.30;;
15194;SDS011;7698;42.478;23.756;2022-09-04T13:55:40;2.47;;;2.28;;
15194;SDS011;7698;42.478;23.756;2022-09-04T13:58:08;3.88;;;2.38;;
15194;SDS011;7698;42.478;23.756;2022-09-04T14:00:40;3.97;;;3.78;;
15194;SDS011;7698;42.478;23.756;2022-09-04T14:03:11;4.35;;;3.95;;
15194;SDS011;7698;42.478;23.756;2022-09-04T14:05:39;4.03;;;3.78;;
15194;SDS011;7698;42.478;23.756;2022-09-04T14:08:18;5.53;;;5.00;;
15194;SDS011;7698;42.478;23.756;2022-09-04T14:10:56;5.93;;;5.53;;
15194;SDS011;7698;42.478;23.756;2022-09-04T14:13:29;6.82;;;6.40;;
15194;SDS011;7698;42.478;23.756;2022-09-04T14:16:04;8.15;;;7.57;;
15194;SDS011;7698;42.478;23.756;2022-09-04T14:18:46;9.05;;;8.35;;
15194;SDS011;7698;42.478;23.756;2022-09-04T14:21:16;9.02;;;8.43;;
15194;SDS011;7698;42.478;23.756;2022-09-04T14:23:50;9.48;;;8.77;;
15194;SDS011;7698;42.478;23.756;2022-09-04T14:26:23;9.10;;;8.45;;
15194;SDS011;7698;42.478;23.756;2022-09-04T14:28:55;9.82;;;9.10;;
15194;SDS011;7698;42.478;23.756;2022-09-04T14:31:25;10.70;;;9.88;;
15194;SDS011;7698;42.478;23.756;2022-09-04T14:33:55;10.63;;;9.82;;
15194;SDS011;7698;42.478;23.756;2022-09-04T14:36:31;11.60;;;10.60;;
15194;SDS011;7698;42.478;23.756;2022-09-04T14:41:45;12.02;;;11.23;;
15194;SDS011;7698;42.478;23.756;2022-09-04T14:44:22;10.88;;;10.13;;
15194;SDS011;7698;42.478;23.756;2022-09-04T14:46:55;12.73;;;11.70;;
15194;SDS011;7698;42.478;23.756;2022-09-04T14:49:24;11.77;;;10.88;;
15194;SDS011;7698;42.478;23.756;2022-09-04T14:51:56;12.40;;;11.50;;
15194;SDS011;7698;42.478;23.756;2022-09-04T14:54:26;11.57;;;10.70;;
15194;SDS011;7698;42.478;23.756;2022-09-04T14:56:55;11.55;;;10.65;;
15194;SDS011;7698;42.478;23.756;2022-09-04T14:59:23;12.07;;;11.18;;
15194;SDS011;7698;42.478;23.756;2022-09-04T15:01:59;12.45;;;11.55;;
15194;SDS011;7698;42.478;23.756;2022-09-04T15:04:26;12.00;;;11.20;;
15194;SDS011;7698;42.478;23.756;2022-09-04T15:06:56;11.35;;;10.50;;
15194;SDS011;7698;42.478;23.756;2022-09-04T15:09:24;11.50;;;10.43;;
15194;SDS011;7698;42.478;23.756;2022-09-04T15:11:52;12.57;;;11.68;;
15194;SDS011;7698;42.478;23.756;2022-09-04T15:14:21;11.93;;;11.02;;
15194;SDS011;7698;42.478;23.756;2022-09-04T15:16:51;11.63;;;10.77;;
15194;SDS011;7698;42.478;23.756;2022-09-04T15:19:26;11.90;;;11.10;;
15194;SDS011;7698;42.478;23.756;2022-09-04T15:21:56;11.75;;;10.75;;
15194;SDS011;7698;42.478;23.756;2022-09-04T15:24:26;11.68;;;10.88;;
15194;SDS011;7698;42.478;23.756;2022-09-04T15:26:55;11.40;;;10.60;;
15194;SDS011;7698;42.478;23.756;2022-09-04T15:29:24;12.43;;;11.45;;
15194;SDS011;7698;42.478;23.756;2022-09-04T15:31:57;14.15;;;12.75;;
15194;SDS011;7698;42.478;23.756;2022-09-04T15:34:26;13.90;;;12.90;;
15194;SDS011;7698;42.478;23.756;2022-09-04T15:36:53;13.82;;;12.73;;
15194;SDS011;7698;42.478;23.756;2022-09-04T15:39:23;12.98;;;11.88;;
15194;SDS011;7698;42.478;23.756;2022-09-04T15:41:52;13.55;;;12.57;;
15194;SDS011;7698;42.478;23.756;2022-09-04T15:44:19;12.30;;;11.40;;
15194;SDS011;7698;42.478;23.756;2022-09-04T15:46:49;13.13;;;12.13;;
15194;SDS011;7698;42.478;23.756;2022-09-04T15:49:23;12.77;;;11.57;;
15194;SDS011;7698;42.478;23.756;2022-09-04T15:51:53;14.02;;;13.02;;
15194;SDS011;7698;42.478;23.756;2022-09-04T15:54:23;13.35;;;12.35;;
15194;SDS011;7698;42.478;23.756;2022-09-04T15:56:54;14.75;;;13.65;;
15194;SDS011;7698;42.478;23.756;2022-09-04T15:59:22;14.07;;;13.07;;
15194;SDS011;7698;42.478;23.756;2022-09-04T16:01:51;13.52;;;12.52;;
15194;SDS011;7698;42.478;23.756;2022-09-04T16:04:22;13.10;;;12.00;;
15194;SDS011;7698;42.478;23.756;2022-09-04T16:06:53;14.57;;;13.38;;
15194;SDS011;7698;42.478;23.756;2022-09-04T16:09:25;14.07;;;13.05;;
15194;SDS011;7698;42.478;23.756;2022-09-04T16:11:54;15.40;;;14.30;;
15194;SDS011;7698;42.478;23.756;2022-09-04T16:14:24;16.42;;;15.27;;
15194;SDS011;7698;42.478;23.756;2022-09-04T16:16:52;14.68;;;13.57;;
15194;SDS011;7698;42.478;23.756;2022-09-04T16:19:21;15.77;;;14.57;;
15194;SDS011;7698;42.478;23.756;2022-09-04T16:21:53;16.02;;;14.82;;
15194;SDS011;7698;42.478;23.756;2022-09-04T16:24:24;16.67;;;15.43;;
15194;SDS011;7698;42.478;23.756;2022-09-04T16:26:54;16.70;;;15.50;;
15194;SDS011;7698;42.478;23.756;2022-09-04T16:29:26;17.65;;;16.35;;
15194;SDS011;7698;42.478;23.756;2022-09-04T16:31:53;16.90;;;15.70;;
15194;SDS011;7698;42.478;23.756;2022-09-04T16:34:22;17.67;;;16.38;;
15194;SDS011;7698;42.478;23.756;2022-09-04T16:36:50;18.30;;;16.70;;
15194;SDS011;7698;42.478;23.756;2022-09-04T16:39:27;17.52;;;16.23;;
15194;SDS011;7698;42.478;23.756;2022-09-04T16:41:58;18.20;;;16.80;;
15194;SDS011;7698;42.478;23.756;2022-09-04T16:44:34;18.25;;;16.95;;
15194;SDS011;7698;42.478;23.756;2022-09-04T16:47:03;17.38;;;16.08;;
15194;SDS011;7698;42.478;23.756;2022-09-04T16:49:37;17.80;;;16.60;;
15194;SDS011;7698;42.478;23.756;2022-09-04T16:54:52;17.83;;;16.52;;
15194;SDS011;7698;42.478;23.756;2022-09-04T16:57:23;16.50;;;15.23;;
15194;SDS011;7698;42.478;23.756;2022-09-04T16:59:51;18.42;;;17.13;;
15194;SDS011;7698;42.478;23.756;2022-09-04T17:02:20;17.75;;;16.35;;
15194;SDS011;7698;42.478;23.756;2022-09-04T17:04:49;17.50;;;15.95;;
15194;SDS011;7698;42.478;23.756;2022-09-04T17:07:18;19.13;;;17.73;;
15194;SDS011;7698;42.478;23.756;2022-09-04T17:09:50;17.08;;;15.77;;